createdAt,value
2022-11-18T00:00:21.000Z,8.70
2022-11-18T00:01:22.000Z,8.71
2022-11-18T00:02:21.000Z,8.69
2022-11-18T00:03:22.000Z,8.70
2022-11-18T00:04:21.000Z,8.71
2022-11-18T00:05:21.000Z,8.71
2022-11-18T00:06:24.000Z,8.71
2022-11-18T00:07:21.000Z,8.71
2022-11-18T00:08:22.000Z,8.71
2022-11-18T00:09:21.000Z,8.71
2022-11-18T00:10:21.000Z,8.73
2022-11-18T00:11:27.000Z,8.73
2022-11-18T00:12:26.000Z,8.73
2022-11-18T00:13:26.000Z,8.73
2022-11-18T00:14:23.000Z,8.73
2022-11-18T00:15:21.000Z,8.71
2022-11-18T00:16:22.000Z,8.72
2022-11-18T00:17:21.000Z,8.71
2022-11-18T00:18:21.000Z,8.71
2022-11-18T00:19:36.000Z,8.73
2022-11-18T00:20:22.000Z,8.70
2022-11-18T00:21:22.000Z,8.71
2022-11-18T00:22:22.000Z,8.71
2022-11-18T00:23:22.000Z,8.68
2022-11-18T00:24:23.000Z,8.70
2022-11-18T00:25:22.000Z,8.68
2022-11-18T00:26:22.000Z,8.69
2022-11-18T00:27:22.000Z,8.72
2022-11-18T00:28:22.000Z,8.70
2022-11-18T00:29:23.000Z,8.70
2022-11-18T00:30:22.000Z,8.70
2022-11-18T00:31:22.000Z,8.69
2022-11-18T00:32:22.000Z,8.69
2022-11-18T00:33:22.000Z,8.69
2022-11-18T00:34:23.000Z,8.69
2022-11-18T00:35:22.000Z,8.68
2022-11-18T00:36:22.000Z,8.68
2022-11-18T00:37:22.000Z,8.67
2022-11-18T00:38:23.000Z,8.68
2022-11-18T00:39:22.000Z,8.71
2022-11-18T00:40:22.000Z,8.70
2022-11-18T00:41:22.000Z,8.69
2022-11-18T00:42:27.000Z,8.71
2022-11-18T00:43:22.000Z,8.72
2022-11-18T00:44:22.000Z,8.70
2022-11-18T00:45:22.000Z,8.72
2022-11-18T00:46:22.000Z,8.72
2022-11-18T00:47:22.000Z,8.70
2022-11-18T00:48:22.000Z,8.72
2022-11-18T00:49:22.000Z,8.71
2022-11-18T00:50:22.000Z,8.72
2022-11-18T00:51:21.000Z,8.72
2022-11-18T00:52:21.000Z,8.71
2022-11-18T00:53:24.000Z,8.71
2022-11-18T00:54:21.000Z,8.72
2022-11-18T00:55:22.000Z,8.71
2022-11-18T00:56:22.000Z,8.71
2022-11-18T00:57:21.000Z,8.71
2022-11-18T00:58:21.000Z,8.73
2022-11-18T00:59:22.000Z,8.72
2022-11-18T01:00:21.000Z,8.72
2022-11-18T01:01:22.000Z,8.75
2022-11-18T01:02:22.000Z,8.73
2022-11-18T01:03:26.000Z,8.69
2022-11-18T01:04:22.000Z,8.73
2022-11-18T01:05:22.000Z,8.72
2022-11-18T01:06:22.000Z,8.72
2022-11-18T01:07:21.000Z,8.70
2022-11-18T01:08:22.000Z,8.71
2022-11-18T01:09:21.000Z,8.73
2022-11-18T01:10:22.000Z,8.73
2022-11-18T01:11:27.000Z,8.72
2022-11-18T01:12:27.000Z,8.72
2022-11-18T01:13:24.000Z,8.72
2022-11-18T01:14:23.000Z,8.71
2022-11-18T01:15:21.000Z,8.70
2022-11-18T01:16:24.000Z,8.72
2022-11-18T01:17:21.000Z,8.70
2022-11-18T01:18:25.000Z,8.71
2022-11-18T01:19:22.000Z,8.71
2022-11-18T01:20:21.000Z,8.70
2022-11-18T01:21:22.000Z,8.72
2022-11-18T01:22:21.000Z,8.74
2022-11-18T01:23:21.000Z,8.73
2022-11-18T01:24:21.000Z,8.74
2022-11-18T01:25:21.000Z,8.73
2022-11-18T01:26:21.000Z,8.72
2022-11-18T01:27:22.000Z,8.73
2022-11-18T01:28:21.000Z,8.71
2022-11-18T01:29:22.000Z,8.71
2022-11-18T01:30:22.000Z,8.72
2022-11-18T01:31:22.000Z,8.73
2022-11-18T01:32:21.000Z,8.72
2022-11-18T01:33:21.000Z,8.71
2022-11-18T01:34:21.000Z,8.71
2022-11-18T01:35:21.000Z,8.72
2022-11-18T01:36:24.000Z,8.74
2022-11-18T01:37:21.000Z,8.74
2022-11-18T01:38:21.000Z,8.73
2022-11-18T01:39:22.000Z,8.72
2022-11-18T01:40:24.000Z,8.76
2022-11-18T01:41:24.000Z,8.75
2022-11-18T01:42:22.000Z,8.73
2022-11-18T01:43:22.000Z,8.75
2022-11-18T01:44:31.000Z,8.74
2022-11-18T01:45:30.000Z,8.72
2022-11-18T01:46:24.000Z,8.70
2022-11-18T01:47:25.000Z,8.67
2022-11-18T01:48:26.000Z,8.67
2022-11-18T01:49:22.000Z,8.66
2022-11-18T01:50:23.000Z,8.69
2022-11-18T01:51:27.000Z,8.68
2022-11-18T01:52:22.000Z,8.67
2022-11-18T01:53:27.000Z,8.68
2022-11-18T01:54:32.000Z,8.68
2022-11-18T01:55:27.000Z,8.68
2022-11-18T01:56:29.000Z,8.68
2022-11-18T01:57:23.000Z,8.68
2022-11-18T01:58:30.000Z,8.69
2022-11-18T01:59:28.000Z,8.69
2022-11-18T02:00:22.000Z,8.73
2022-11-18T02:01:22.000Z,8.73
2022-11-18T02:02:23.000Z,8.70
2022-11-18T02:03:24.000Z,8.72
2022-11-18T02:04:24.000Z,8.71
2022-11-18T02:05:22.000Z,8.72
2022-11-18T02:06:22.000Z,8.69
2022-11-18T02:07:23.000Z,8.69
2022-11-18T02:08:22.000Z,8.69
2022-11-18T02:09:22.000Z,8.68
2022-11-18T02:10:22.000Z,8.67
2022-11-18T02:11:28.000Z,8.67
2022-11-18T02:12:22.000Z,8.67
2022-11-18T02:13:22.000Z,8.67
2022-11-18T02:14:26.000Z,8.67
2022-11-18T02:15:37.000Z,8.67
2022-11-18T02:16:31.000Z,8.67
2022-11-18T02:17:43.000Z,8.67
2022-11-18T02:18:35.000Z,8.67
2022-11-18T02:19:33.000Z,8.66
2022-11-18T02:20:36.000Z,8.66
2022-11-18T02:21:42.000Z,8.67
2022-11-18T02:22:42.000Z,8.67
2022-11-18T02:23:31.000Z,8.66
2022-11-18T02:24:42.000Z,8.65
2022-11-18T02:25:31.000Z,8.64
2022-11-18T02:26:50.000Z,8.64
2022-11-18T02:27:31.000Z,8.64
2022-11-18T02:28:42.000Z,8.65
2022-11-18T02:29:30.000Z,8.64
2022-11-18T02:30:22.000Z,8.65
2022-11-18T02:31:44.000Z,8.64
2022-11-18T02:32:27.000Z,8.65
2022-11-18T02:33:31.000Z,8.66
2022-11-18T02:34:46.000Z,8.66
2022-11-18T02:35:31.000Z,8.65
2022-11-18T02:36:28.000Z,8.66
2022-11-18T02:37:32.000Z,8.65
2022-11-18T02:38:26.000Z,8.66
2022-11-18T02:39:29.000Z,8.66
2022-11-18T02:40:28.000Z,8.66
2022-11-18T02:41:26.000Z,8.65
2022-11-18T02:42:24.000Z,8.65
2022-11-18T02:43:44.000Z,8.67
2022-11-18T02:44:25.000Z,8.66
2022-11-18T02:45:24.000Z,8.66
2022-11-18T02:46:29.000Z,8.66
2022-11-18T02:47:24.000Z,8.66
2022-11-18T02:48:24.000Z,8.65
2022-11-18T02:49:37.000Z,8.64
2022-11-18T02:50:25.000Z,8.65
2022-11-18T02:51:25.000Z,8.64
2022-11-18T02:52:24.000Z,8.63
2022-11-18T02:53:24.000Z,8.62
2022-11-18T02:54:24.000Z,8.63
2022-11-18T02:55:26.000Z,8.63
2022-11-18T02:56:24.000Z,8.64
2022-11-18T02:57:23.000Z,8.63
2022-11-18T02:58:24.000Z,8.64
2022-11-18T02:59:21.000Z,8.61
2022-11-18T03:00:21.000Z,8.61
2022-11-18T03:01:25.000Z,8.62
2022-11-18T03:02:21.000Z,8.63
2022-11-18T03:03:29.000Z,8.63
2022-11-18T03:04:23.000Z,8.62
2022-11-18T03:05:32.000Z,8.60
2022-11-18T03:06:38.000Z,8.59
2022-11-18T03:07:33.000Z,8.61
2022-11-18T03:08:27.000Z,8.61
2022-11-18T03:09:31.000Z,8.61
2022-11-18T03:10:27.000Z,8.62
2022-11-18T03:11:25.000Z,8.61
2022-11-18T03:12:32.000Z,8.60
2022-11-18T03:13:27.000Z,8.60
2022-11-18T03:14:34.000Z,8.60
2022-11-18T03:15:34.000Z,8.62
2022-11-18T03:16:27.000Z,8.62
2022-11-18T03:17:31.000Z,8.64
2022-11-18T03:18:32.000Z,8.65
2022-11-18T03:19:42.000Z,8.64
2022-11-18T03:20:40.000Z,8.65
2022-11-18T03:21:33.000Z,8.64
2022-11-18T03:22:26.000Z,8.64
2022-11-18T03:23:32.000Z,8.62
2022-11-18T03:24:28.000Z,8.63
2022-11-18T03:25:35.000Z,8.65
2022-11-18T03:26:34.000Z,8.64
2022-11-18T03:27:33.000Z,8.63
2022-11-18T03:28:45.000Z,8.63
2022-11-18T03:29:30.000Z,8.64
2022-11-18T03:30:23.000Z,8.67
2022-11-18T03:31:27.000Z,8.66
2022-11-18T03:32:26.000Z,8.64
2022-11-18T03:33:31.000Z,8.64
2022-11-18T03:34:29.000Z,8.65
2022-11-18T03:35:25.000Z,8.64
2022-11-18T03:36:26.000Z,8.65
2022-11-18T03:37:24.000Z,8.65
2022-11-18T03:38:28.000Z,8.63
2022-11-18T03:39:24.000Z,8.66
2022-11-18T03:40:29.000Z,8.64
2022-11-18T03:41:24.000Z,8.63
2022-11-18T03:42:33.000Z,8.60
2022-11-18T03:43:25.000Z,8.63
2022-11-18T03:44:28.000Z,8.65
2022-11-18T03:45:27.000Z,8.66
2022-11-18T03:46:30.000Z,8.65
2022-11-18T03:47:33.000Z,8.68
2022-11-18T03:48:26.000Z,8.65
2022-11-18T03:49:29.000Z,8.67
2022-11-18T03:50:30.000Z,8.66
2022-11-18T03:51:28.000Z,8.66
2022-11-18T03:52:27.000Z,8.64
2022-11-18T03:53:26.000Z,8.65
2022-11-18T03:54:26.000Z,8.65
2022-11-18T03:55:30.000Z,8.66
2022-11-18T03:56:28.000Z,8.65
2022-11-18T03:57:36.000Z,8.67
2022-11-18T03:58:32.000Z,8.65
2022-11-18T03:59:29.000Z,8.64
2022-11-18T04:00:25.000Z,8.69
2022-11-18T04:01:41.000Z,8.65
2022-11-18T04:02:24.000Z,8.65
2022-11-18T04:03:24.000Z,8.66
2022-11-18T04:04:24.000Z,8.67
2022-11-18T04:05:22.000Z,8.67
2022-11-18T04:06:30.000Z,8.67
2022-11-18T04:07:31.000Z,8.68
2022-11-18T04:08:27.000Z,8.68
2022-11-18T04:09:28.000Z,8.65
2022-11-18T04:10:31.000Z,8.63
2022-11-18T04:11:32.000Z,8.63
2022-11-18T04:12:25.000Z,8.63
2022-11-18T04:13:29.000Z,8.60
2022-11-18T04:14:22.000Z,8.61
2022-11-18T04:15:23.000Z,8.63
2022-11-18T04:16:22.000Z,8.63
2022-11-18T04:17:26.000Z,8.64
2022-11-18T04:18:22.000Z,8.61
2022-11-18T04:19:22.000Z,8.59
2022-11-18T04:20:22.000Z,8.61
2022-11-18T04:21:22.000Z,8.58
2022-11-18T04:22:22.000Z,8.58
2022-11-18T04:23:22.000Z,8.59
2022-11-18T04:24:21.000Z,8.59
2022-11-18T04:25:23.000Z,8.59
2022-11-18T04:26:21.000Z,8.59
2022-11-18T04:27:21.000Z,8.62
2022-11-18T04:28:21.000Z,8.59
2022-11-18T04:29:22.000Z,8.58
2022-11-18T04:30:21.000Z,8.57
2022-11-18T04:31:21.000Z,8.59
2022-11-18T04:32:21.000Z,8.57
2022-11-18T04:33:21.000Z,8.54
2022-11-18T04:34:22.000Z,8.55
2022-11-18T04:35:22.000Z,8.53
2022-11-18T04:36:22.000Z,8.52
2022-11-18T04:37:21.000Z,8.55
2022-11-18T04:38:21.000Z,8.53
2022-11-18T04:39:22.000Z,8.50
2022-11-18T04:40:21.000Z,8.54
2022-11-18T04:41:36.000Z,8.53
2022-11-18T04:42:21.000Z,8.53
2022-11-18T04:43:21.000Z,8.54
2022-11-18T04:44:27.000Z,8.55
2022-11-18T04:45:21.000Z,8.52
2022-11-18T04:46:21.000Z,8.53
2022-11-18T04:47:21.000Z,8.53
2022-11-18T04:48:22.000Z,8.54
2022-11-18T04:49:23.000Z,8.54
2022-11-18T04:50:21.000Z,8.55
2022-11-18T04:51:22.000Z,8.57
2022-11-18T04:52:21.000Z,8.55
2022-11-18T04:53:21.000Z,8.57
2022-11-18T04:54:23.000Z,8.57
2022-11-18T04:55:21.000Z,8.62
2022-11-18T04:56:21.000Z,8.56
2022-11-18T04:57:21.000Z,8.56
2022-11-18T04:58:21.000Z,8.55
2022-11-18T04:59:24.000Z,8.56
2022-11-18T05:00:21.000Z,8.56
2022-11-18T05:01:21.000Z,8.57
2022-11-18T05:02:21.000Z,8.57
2022-11-18T05:03:21.000Z,8.56
2022-11-18T05:04:24.000Z,8.56
2022-11-18T05:05:21.000Z,8.53
2022-11-18T05:06:22.000Z,8.52
2022-11-18T05:07:21.000Z,8.52
2022-11-18T05:08:21.000Z,8.51
2022-11-18T05:09:21.000Z,8.59
2022-11-18T05:10:21.000Z,8.53
2022-11-18T05:11:26.000Z,8.51
2022-11-18T05:12:26.000Z,8.50
2022-11-18T05:13:21.000Z,8.50
2022-11-18T05:14:25.000Z,8.50
2022-11-18T05:15:23.000Z,8.50
2022-11-18T05:16:21.000Z,8.48
2022-11-18T05:17:21.000Z,8.46
2022-11-18T05:18:21.000Z,8.47
2022-11-18T05:19:21.000Z,8.47
2022-11-18T05:20:21.000Z,8.41
2022-11-18T05:21:21.000Z,8.43
2022-11-18T05:22:21.000Z,8.42
2022-11-18T05:23:21.000Z,8.42
2022-11-18T05:24:24.000Z,8.43
2022-11-18T05:25:21.000Z,8.44
2022-11-18T05:26:21.000Z,8.46
2022-11-18T05:27:21.000Z,8.44
2022-11-18T05:28:21.000Z,8.36
2022-11-18T05:29:22.000Z,8.32
2022-11-18T05:30:21.000Z,8.34
2022-11-18T05:31:21.000Z,8.34
2022-11-18T05:32:21.000Z,8.36
2022-11-18T05:33:21.000Z,8.35
2022-11-18T05:34:21.000Z,8.35
2022-11-18T05:35:21.000Z,8.35
2022-11-18T05:36:21.000Z,8.31
2022-11-18T05:37:21.000Z,8.30
2022-11-18T05:38:21.000Z,8.31
2022-11-18T05:39:21.000Z,8.26
2022-11-18T05:40:21.000Z,8.23
2022-11-18T05:41:26.000Z,8.26
2022-11-18T05:42:26.000Z,8.21
2022-11-18T05:43:21.000Z,8.22
2022-11-18T05:44:21.000Z,8.18
2022-11-18T05:45:21.000Z,8.20
2022-11-18T05:46:21.000Z,8.23
2022-11-18T05:47:23.000Z,8.24
2022-11-18T05:48:21.000Z,8.21
2022-11-18T05:49:22.000Z,8.22
2022-11-18T05:50:21.000Z,8.20
2022-11-18T05:51:22.000Z,8.19
2022-11-18T05:52:21.000Z,8.20
2022-11-18T05:53:23.000Z,8.22
2022-11-18T05:54:21.000Z,8.21
2022-11-18T05:55:25.000Z,8.20
2022-11-18T05:56:27.000Z,8.26
2022-11-18T05:57:22.000Z,8.24
2022-11-18T05:58:22.000Z,8.26
2022-11-18T05:59:22.000Z,8.25
2022-11-18T06:00:22.000Z,8.24
2022-11-18T06:01:31.000Z,8.25
2022-11-18T06:02:23.000Z,8.25
2022-11-18T06:03:27.000Z,8.21
2022-11-18T06:04:33.000Z,8.19
2022-11-18T06:05:24.000Z,8.21
2022-11-18T06:06:23.000Z,8.27
2022-11-18T06:07:25.000Z,8.22
2022-11-18T06:08:25.000Z,8.20
2022-11-18T06:09:25.000Z,8.24
2022-11-18T06:10:30.000Z,8.16
2022-11-18T06:11:22.000Z,8.13
2022-11-18T06:12:27.000Z,8.06
2022-11-18T06:13:27.000Z,8.06
2022-11-18T06:14:32.000Z,8.04
2022-11-18T06:15:26.000Z,7.92
2022-11-18T06:16:26.000Z,7.93
2022-11-18T06:17:32.000Z,7.96
2022-11-18T06:18:26.000Z,8.02
2022-11-18T06:19:22.000Z,7.98
2022-11-18T06:20:22.000Z,7.99
2022-11-18T06:21:22.000Z,8.00
2022-11-18T06:22:22.000Z,8.00
2022-11-18T06:23:22.000Z,8.04
2022-11-18T06:24:22.000Z,7.98
2022-11-18T06:25:22.000Z,8.03
2022-11-18T06:26:22.000Z,8.04
2022-11-18T06:27:22.000Z,8.01
2022-11-18T06:28:22.000Z,8.00
2022-11-18T06:29:21.000Z,7.97
2022-11-18T06:30:22.000Z,7.96
2022-11-18T06:31:21.000Z,7.98
2022-11-18T06:32:21.000Z,7.99
2022-11-18T06:33:21.000Z,7.98
2022-11-18T06:34:22.000Z,7.98
2022-11-18T06:35:22.000Z,7.98
2022-11-18T06:36:21.000Z,7.97
2022-11-18T06:37:21.000Z,7.96
2022-11-18T06:38:23.000Z,7.96
2022-11-18T06:39:21.000Z,8.01
2022-11-18T06:40:21.000Z,8.01
2022-11-18T06:41:21.000Z,8.00
2022-11-18T06:42:27.000Z,8.00
2022-11-18T06:43:27.000Z,8.04
2022-11-18T06:44:21.000Z,8.03
2022-11-18T06:45:21.000Z,8.02
2022-11-18T06:46:27.000Z,8.02
2022-11-18T06:47:21.000Z,8.02
2022-11-18T06:48:21.000Z,8.05
2022-11-18T06:49:23.000Z,8.04
2022-11-18T06:50:22.000Z,8.05
2022-11-18T06:51:22.000Z,8.05
2022-11-18T06:52:22.000Z,8.03
2022-11-18T06:53:21.000Z,8.07
2022-11-18T06:54:21.000Z,8.06
2022-11-18T06:55:21.000Z,8.09
2022-11-18T06:56:22.000Z,8.05
2022-11-18T06:57:21.000Z,8.06
2022-11-18T06:58:21.000Z,8.07
2022-11-18T06:59:22.000Z,8.05
2022-11-18T07:00:21.000Z,8.06
2022-11-18T07:01:23.000Z,8.09
2022-11-18T07:02:21.000Z,8.09
2022-11-18T07:03:21.000Z,8.07
2022-11-18T07:04:21.000Z,8.09
2022-11-18T07:05:21.000Z,8.08
2022-11-18T07:06:24.000Z,8.06
2022-11-18T07:07:21.000Z,8.07
2022-11-18T07:08:21.000Z,8.07
2022-11-18T07:09:21.000Z,8.09
2022-11-18T07:10:21.000Z,8.11
2022-11-18T07:11:23.000Z,8.13
2022-11-18T07:12:21.000Z,8.11
2022-11-18T07:13:21.000Z,8.10
2022-11-18T07:14:21.000Z,8.12
2022-11-18T07:15:21.000Z,8.15
2022-11-18T07:16:24.000Z,8.14
2022-11-18T07:17:21.000Z,8.14
2022-11-18T07:18:21.000Z,8.14
2022-11-18T07:19:21.000Z,8.16
2022-11-18T07:20:21.000Z,8.15
2022-11-18T07:21:23.000Z,8.15
2022-11-18T07:22:21.000Z,8.14
2022-11-18T07:23:21.000Z,8.12
2022-11-18T07:24:21.000Z,8.08
2022-11-18T07:25:21.000Z,8.10
2022-11-18T07:26:21.000Z,8.10
2022-11-18T07:27:21.000Z,8.12
2022-11-18T07:28:22.000Z,8.11
2022-11-18T07:29:21.000Z,8.08
2022-11-18T07:30:21.000Z,8.08
2022-11-18T07:31:22.000Z,8.07
2022-11-18T07:32:21.000Z,8.05
2022-11-18T07:33:21.000Z,8.07
2022-11-18T07:34:22.000Z,8.10
2022-11-18T07:35:22.000Z,8.09
2022-11-18T07:36:25.000Z,8.07
2022-11-18T07:37:22.000Z,8.07
2022-11-18T07:38:21.000Z,8.13
2022-11-18T07:39:22.000Z,8.08
2022-11-18T07:40:21.000Z,8.09
2022-11-18T07:41:24.000Z,8.13
2022-11-18T07:42:21.000Z,8.09
2022-11-18T07:43:22.000Z,8.10
2022-11-18T07:44:21.000Z,8.09
2022-11-18T07:45:22.000Z,8.10
2022-11-18T07:46:25.000Z,8.08
2022-11-18T07:47:22.000Z,8.07
2022-11-18T07:48:21.000Z,8.07
2022-11-18T07:49:22.000Z,8.08
2022-11-18T07:50:21.000Z,8.09
2022-11-18T07:51:24.000Z,8.10
2022-11-18T07:52:22.000Z,8.12
2022-11-18T07:53:21.000Z,8.11
2022-11-18T07:54:22.000Z,8.11
2022-11-18T07:55:22.000Z,8.12
2022-11-18T07:56:22.000Z,8.10
2022-11-18T07:57:21.000Z,8.11
2022-11-18T07:58:22.000Z,8.10
2022-11-18T07:59:21.000Z,8.10
2022-11-18T08:00:22.000Z,8.10
2022-11-18T08:01:24.000Z,8.09
2022-11-18T08:02:21.000Z,8.10
2022-11-18T08:03:26.000Z,8.11
2022-11-18T08:04:22.000Z,8.13
2022-11-18T08:05:21.000Z,8.11
2022-11-18T08:06:22.000Z,8.12
2022-11-18T08:07:22.000Z,8.16
2022-11-18T08:08:21.000Z,8.12
2022-11-18T08:09:21.000Z,8.12
2022-11-18T08:10:21.000Z,8.10
2022-11-18T08:11:22.000Z,8.10
2022-11-18T08:12:21.000Z,8.13
2022-11-18T08:13:22.000Z,8.12
2022-11-18T08:14:23.000Z,8.14
2022-11-18T08:15:23.000Z,8.17
2022-11-18T08:16:23.000Z,8.14
2022-11-18T08:17:22.000Z,8.12
2022-11-18T08:18:22.000Z,8.14
2022-11-18T08:19:22.000Z,8.13
2022-11-18T08:20:26.000Z,8.17
2022-11-18T08:21:22.000Z,8.14
2022-11-18T08:22:21.000Z,8.19
2022-11-18T08:23:21.000Z,8.18
2022-11-18T08:24:22.000Z,8.18
2022-11-18T08:25:21.000Z,8.17
2022-11-18T08:26:23.000Z,8.15
2022-11-18T08:27:21.000Z,8.17
2022-11-18T08:28:21.000Z,8.17
2022-11-18T08:29:21.000Z,8.17
2022-11-18T08:30:22.000Z,8.14
2022-11-18T08:31:25.000Z,8.15
2022-11-18T08:32:22.000Z,8.15
2022-11-18T08:33:22.000Z,8.13
2022-11-18T08:34:22.000Z,8.16
2022-11-18T08:35:22.000Z,8.16
2022-11-18T08:36:24.000Z,8.16
2022-11-18T08:37:22.000Z,8.15
2022-11-18T08:38:21.000Z,8.15
2022-11-18T08:39:22.000Z,8.18
2022-11-18T08:40:22.000Z,8.19
2022-11-18T08:41:29.000Z,8.19
2022-11-18T08:42:22.000Z,8.19
2022-11-18T08:43:21.000Z,8.22
2022-11-18T08:44:21.000Z,8.20
2022-11-18T08:45:22.000Z,8.22
2022-11-18T08:46:22.000Z,8.22
2022-11-18T08:47:22.000Z,8.18
2022-11-18T08:48:21.000Z,8.16
2022-11-18T08:49:22.000Z,8.20
2022-11-18T08:50:22.000Z,8.19
2022-11-18T08:51:22.000Z,8.18
2022-11-18T08:52:22.000Z,8.20
2022-11-18T08:53:22.000Z,8.25
2022-11-18T08:54:22.000Z,8.22
2022-11-18T08:55:22.000Z,8.21
2022-11-18T08:56:23.000Z,8.26
2022-11-18T08:57:22.000Z,8.25
2022-11-18T08:58:22.000Z,8.25
2022-11-18T08:59:22.000Z,8.25
2022-11-18T09:00:22.000Z,8.23
2022-11-18T09:01:22.000Z,8.22
2022-11-18T09:02:22.000Z,8.21
2022-11-18T09:03:22.000Z,8.27
2022-11-18T09:04:21.000Z,8.27
2022-11-18T09:05:21.000Z,8.26
2022-11-18T09:06:23.000Z,8.25
2022-11-18T09:07:21.000Z,8.24
2022-11-18T09:08:25.000Z,8.28
2022-11-18T09:09:22.000Z,8.23
2022-11-18T09:10:21.000Z,8.26
2022-11-18T09:11:24.000Z,8.28
2022-11-18T09:12:21.000Z,8.27
2022-11-18T09:13:21.000Z,8.23
2022-11-18T09:14:21.000Z,8.25
2022-11-18T09:15:23.000Z,8.28
2022-11-18T09:16:26.000Z,8.29
2022-11-18T09:17:21.000Z,8.31
2022-11-18T09:18:21.000Z,8.33
2022-11-18T09:19:21.000Z,8.32
2022-11-18T09:20:22.000Z,8.30
2022-11-18T09:21:22.000Z,8.30
2022-11-18T09:22:21.000Z,8.29
2022-11-18T09:23:22.000Z,8.29
2022-11-18T09:24:21.000Z,8.32
2022-11-18T09:25:21.000Z,8.32
2022-11-18T09:26:22.000Z,8.34
2022-11-18T09:27:21.000Z,8.36
2022-11-18T09:28:21.000Z,8.37
2022-11-18T09:29:24.000Z,8.39
2022-11-18T09:30:21.000Z,8.39
2022-11-18T09:31:21.000Z,8.38
2022-11-18T09:32:21.000Z,8.34
2022-11-18T09:33:22.000Z,8.36
2022-11-18T09:34:22.000Z,8.37
2022-11-18T09:35:21.000Z,8.37
2022-11-18T09:36:23.000Z,8.40
2022-11-18T09:37:22.000Z,8.40
2022-11-18T09:38:21.000Z,8.44
2022-11-18T09:39:22.000Z,8.45
2022-11-18T09:40:21.000Z,8.46
2022-11-18T09:41:32.000Z,8.47
2022-11-18T09:42:37.000Z,8.48
2022-11-18T09:43:44.000Z,8.48
2022-11-18T09:44:45.000Z,8.49
2022-11-18T09:45:31.000Z,8.51
2022-11-18T09:46:42.000Z,8.51
2022-11-18T09:47:29.000Z,8.53
2022-11-18T09:48:39.000Z,8.50
2022-11-18T09:49:30.000Z,8.50
2022-11-18T09:50:22.000Z,8.50
2022-11-18T09:51:26.000Z,8.51
2022-11-18T09:52:27.000Z,8.52
2022-11-18T09:53:24.000Z,8.59
2022-11-18T09:54:38.000Z,8.53
2022-11-18T09:55:22.000Z,8.51
2022-11-18T09:56:22.000Z,8.50
2022-11-18T09:57:27.000Z,8.51
2022-11-18T09:58:33.000Z,8.48
2022-11-18T09:59:26.000Z,8.49
2022-11-18T10:00:24.000Z,8.50
2022-11-18T10:01:21.000Z,8.51
2022-11-18T10:02:45.000Z,8.50
2022-11-18T10:03:30.000Z,8.52
2022-11-18T10:04:21.000Z,8.47
2022-11-18T10:05:27.000Z,8.47
2022-11-18T10:06:31.000Z,8.51
2022-11-18T10:07:34.000Z,8.53
2022-11-18T10:08:29.000Z,8.54
2022-11-18T10:09:38.000Z,8.55
2022-11-18T10:10:33.000Z,8.57
2022-11-18T10:11:34.000Z,8.55
2022-11-18T10:12:31.000Z,8.56
2022-11-18T10:13:41.000Z,8.56
2022-11-18T10:14:31.000Z,8.56
2022-11-18T10:15:32.000Z,8.54
2022-11-18T10:16:37.000Z,8.55
2022-11-18T10:17:52.000Z,8.54
2022-11-18T10:18:33.000Z,8.53
2022-11-18T10:19:31.000Z,8.58
2022-11-18T10:20:34.000Z,8.59
2022-11-18T10:21:41.000Z,8.57
2022-11-18T10:22:31.000Z,8.53
2022-11-18T10:23:28.000Z,8.52
2022-11-18T10:24:24.000Z,8.55
2022-11-18T10:25:21.000Z,8.57
2022-11-18T10:26:31.000Z,8.54
2022-11-18T10:27:40.000Z,8.56
2022-11-18T10:28:28.000Z,8.57
2022-11-18T10:29:22.000Z,8.60
2022-11-18T10:30:24.000Z,8.61
2022-11-18T10:31:21.000Z,8.64
2022-11-18T10:32:21.000Z,8.62
2022-11-18T10:33:25.000Z,8.65
2022-11-18T10:34:21.000Z,8.63
2022-11-18T10:35:34.000Z,8.63
2022-11-18T10:36:29.000Z,8.63
2022-11-18T10:37:28.000Z,8.63
2022-11-18T10:38:21.000Z,8.66
2022-11-18T10:39:21.000Z,8.59
2022-11-18T10:40:25.000Z,8.62
2022-11-18T10:41:21.000Z,8.65
2022-11-18T10:42:30.000Z,8.66
2022-11-18T10:43:31.000Z,8.66
2022-11-18T10:44:31.000Z,8.70
2022-11-18T10:45:31.000Z,8.69
2022-11-18T10:46:27.000Z,8.69
2022-11-18T10:47:28.000Z,8.72
2022-11-18T10:48:21.000Z,8.73
2022-11-18T10:49:21.000Z,8.68
2022-11-18T10:50:31.000Z,8.67
2022-11-18T10:51:22.000Z,8.70
2022-11-18T10:52:21.000Z,8.68
2022-11-18T10:53:31.000Z,8.67
2022-11-18T10:54:21.000Z,8.70
2022-11-18T10:55:23.000Z,8.72
2022-11-18T10:56:21.000Z,8.70
2022-11-18T10:57:23.000Z,8.74
2022-11-18T10:58:23.000Z,8.75
2022-11-18T10:59:41.000Z,8.75
2022-11-18T11:00:31.000Z,8.81
2022-11-18T11:01:24.000Z,8.78
2022-11-18T11:02:31.000Z,8.78
2022-11-18T11:03:30.000Z,8.77
2022-11-18T11:04:23.000Z,8.78
2022-11-18T11:05:22.000Z,8.80
2022-11-18T11:06:40.000Z,8.82
2022-11-18T11:07:30.000Z,8.80
2022-11-18T11:08:22.000Z,8.82
2022-11-18T11:09:27.000Z,8.82
2022-11-18T11:10:22.000Z,8.81
2022-11-18T11:11:45.000Z,8.78
2022-11-18T11:12:22.000Z,8.77
2022-11-18T11:13:25.000Z,8.73
2022-11-18T11:14:42.000Z,8.78
2022-11-18T11:15:32.000Z,8.78
2022-11-18T11:16:24.000Z,8.80
2022-11-18T11:17:32.000Z,8.81
2022-11-18T11:18:29.000Z,8.77
2022-11-18T11:19:25.000Z,8.81
2022-11-18T11:20:23.000Z,8.82
2022-11-18T11:21:25.000Z,8.83
2022-11-18T11:22:22.000Z,8.86
2022-11-18T11:23:23.000Z,8.84
2022-11-18T11:24:25.000Z,8.83
2022-11-18T11:25:42.000Z,8.84
2022-11-18T11:27:02.000Z,8.82
2022-11-18T11:28:14.000Z,8.80
2022-11-18T11:28:29.000Z,8.84
2022-11-18T11:29:32.000Z,8.80
2022-11-18T11:30:23.000Z,8.82
2022-11-18T11:31:54.000Z,8.80
2022-11-18T11:32:36.000Z,8.81
2022-11-18T11:33:30.000Z,8.81
2022-11-18T11:34:30.000Z,8.81
2022-11-18T11:35:31.000Z,8.79
2022-11-18T11:36:36.000Z,8.82
2022-11-18T11:37:33.000Z,8.84
2022-11-18T11:38:35.000Z,8.87
2022-11-18T11:39:38.000Z,8.91
2022-11-18T11:40:32.000Z,8.89
2022-11-18T11:41:26.000Z,8.89
2022-11-18T11:42:31.000Z,8.89
2022-11-18T11:43:31.000Z,8.91
2022-11-18T11:44:30.000Z,8.83
2022-11-18T11:45:41.000Z,8.87
2022-11-18T11:46:38.000Z,8.84
2022-11-18T11:47:52.000Z,8.82
2022-11-18T11:48:41.000Z,8.83
2022-11-18T11:49:29.000Z,8.81
2022-11-18T11:50:33.000Z,8.82
2022-11-18T11:51:31.000Z,8.85
2022-11-18T11:52:31.000Z,8.82
2022-11-18T11:53:31.000Z,8.84
2022-11-18T11:54:44.000Z,8.84
2022-11-18T11:55:30.000Z,8.83
2022-11-18T11:56:31.000Z,8.80
2022-11-18T11:57:42.000Z,8.79
2022-11-18T11:58:54.000Z,8.82
2022-11-18T11:59:31.000Z,8.79
2022-11-18T12:00:21.000Z,8.80
2022-11-18T12:01:31.000Z,8.79
2022-11-18T12:02:43.000Z,8.77
2022-11-18T12:03:41.000Z,8.74
2022-11-18T12:04:31.000Z,8.77
2022-11-18T12:05:29.000Z,8.80
2022-11-18T12:06:21.000Z,8.72
2022-11-18T12:07:27.000Z,8.75
2022-11-18T12:08:28.000Z,8.72
2022-11-18T12:09:34.000Z,8.73
2022-11-18T12:10:44.000Z,8.71
2022-11-18T12:11:34.000Z,8.73
2022-11-18T12:12:35.000Z,8.71
2022-11-18T12:13:33.000Z,8.73
2022-11-18T12:14:29.000Z,8.78
2022-11-18T12:15:44.000Z,8.76
2022-11-18T12:16:44.000Z,8.79
2022-11-18T12:17:30.000Z,8.81
2022-11-18T12:18:31.000Z,8.78
2022-11-18T12:19:21.000Z,8.78
2022-11-18T12:20:34.000Z,8.78
2022-11-18T12:21:31.000Z,8.75
2022-11-18T12:22:21.000Z,8.65
2022-11-18T12:23:23.000Z,8.63
2022-11-18T12:24:29.000Z,8.70
2022-11-18T12:25:41.000Z,8.74
2022-11-18T12:26:33.000Z,8.77
2022-11-18T12:27:54.000Z,8.81
2022-11-18T12:28:34.000Z,8.77
2022-11-18T12:29:23.000Z,8.71
2022-11-18T12:30:21.000Z,8.74
2022-11-18T12:31:36.000Z,8.67
2022-11-18T12:32:27.000Z,8.69
2022-11-18T12:33:21.000Z,8.60
2022-11-18T12:34:31.000Z,8.65
2022-11-18T12:35:25.000Z,8.65
2022-11-18T12:36:38.000Z,8.61
2022-11-18T12:37:41.000Z,8.65
2022-11-18T12:38:27.000Z,8.64
2022-11-18T12:39:53.000Z,8.66
2022-11-18T12:40:31.000Z,8.67
2022-11-18T12:42:03.000Z,8.61
2022-11-18T12:42:36.000Z,8.67
2022-11-18T12:44:01.000Z,8.65
2022-11-18T12:44:23.000Z,8.64
2022-11-18T12:45:30.000Z,8.55
2022-11-18T12:46:43.000Z,8.56
2022-11-18T12:47:54.000Z,8.59
2022-11-18T12:48:33.000Z,8.60
2022-11-18T12:49:51.000Z,8.61
2022-11-18T12:50:40.000Z,8.63
2022-11-18T12:51:38.000Z,8.60
2022-11-18T12:52:43.000Z,8.62
2022-11-18T12:53:34.000Z,8.65
2022-11-18T12:54:28.000Z,8.64
2022-11-18T12:55:29.000Z,8.59
2022-11-18T12:56:25.000Z,8.59
2022-11-18T12:57:25.000Z,8.62
2022-11-18T12:58:23.000Z,8.56
2022-11-18T12:59:33.000Z,8.58
2022-11-18T13:00:36.000Z,8.57
2022-11-18T13:01:24.000Z,8.61
2022-11-18T13:02:23.000Z,8.56
2022-11-18T13:03:23.000Z,8.55
2022-11-18T13:04:21.000Z,8.52
2022-11-18T13:05:33.000Z,8.58
2022-11-18T13:06:29.000Z,8.56
2022-11-18T13:07:26.000Z,8.56
2022-11-18T13:08:22.000Z,8.60
2022-11-18T13:09:29.000Z,8.64
2022-11-18T13:10:25.000Z,8.63
2022-11-18T13:11:31.000Z,8.66
2022-11-18T13:12:25.000Z,8.70
2022-11-18T13:13:25.000Z,8.52
2022-11-18T13:14:32.000Z,8.51
2022-11-18T13:15:26.000Z,8.53
2022-11-18T13:16:27.000Z,8.51
2022-11-18T13:17:31.000Z,8.53
2022-11-18T13:18:21.000Z,8.43